createdAt,value
2017-11-05T00:01:42.298Z,81.97
2017-11-05T00:04:09.893Z,81.88
2017-11-05T00:06:37.517Z,82.14
2017-11-05T00:09:05.139Z,82.32
2017-11-05T00:11:32.750Z,82.45
2017-11-05T00:14:00.421Z,82.35
2017-11-05T00:16:28.327Z,82.45
2017-11-05T00:18:55.928Z,82.41
2017-11-05T00:21:23.552Z,82.32
2017-11-05T00:23:51.406Z,82.47
2017-11-05T00:26:19.057Z,82.54
2017-11-05T00:28:46.943Z,82.40
2017-11-05T00:31:14.549Z,82.73
2017-11-05T00:33:42.273Z,82.73
2017-11-05T00:36:09.875Z,82.62
2017-11-05T00:38:37.508Z,82.58
2017-11-05T00:41:05.140Z,82.95
2017-11-05T00:43:32.819Z,82.92
2017-11-05T00:46:00.485Z,82.95
2017-11-05T00:48:28.128Z,82.92
2017-11-05T00:50:55.730Z,83.12
2017-11-05T00:53:23.671Z,83.17
2017-11-05T00:55:51.269Z,83.17
2017-11-05T00:58:18.892Z,83.17
2017-11-05T01:00:46.534Z,83.40
2017-11-05T01:03:14.151Z,83.60
2017-11-05T01:05:41.780Z,83.72
2017-11-05T01:08:09.403Z,83.70
2017-11-05T01:10:37.003Z,83.75
2017-11-05T01:13:04.659Z,83.72
2017-11-05T01:15:32.308Z,83.82
2017-11-05T01:17:59.953Z,83.72
2017-11-05T01:20:27.557Z,83.67
2017-11-05T01:22:55.155Z,83.73
2017-11-05T01:25:22.783Z,83.64
2017-11-05T01:27:50.383Z,83.71
2017-11-05T01:30:18.015Z,83.68
2017-11-05T01:32:45.661Z,83.78
2017-11-05T01:35:13.271Z,84.01
2017-11-05T01:37:41.791Z,83.93
2017-11-05T01:40:09.678Z,84.00
2017-11-05T01:42:37.353Z,84.03
2017-11-05T01:45:04.988Z,83.99
2017-11-05T01:47:32.593Z,84.02
2017-11-05T01:50:00.222Z,84.10
2017-11-05T01:52:27.808Z,84.52
2017-11-05T01:54:55.449Z,84.69
2017-11-05T01:57:23.057Z,84.77
2017-11-05T01:59:50.670Z,84.79
2017-11-05T02:02:18.334Z,84.77
2017-11-05T02:04:45.989Z,84.95
2017-11-05T02:07:14.515Z,85.00
2017-11-05T02:09:42.133Z,85.09
2017-11-05T02:12:09.728Z,85.12
2017-11-05T02:14:37.679Z,85.11
2017-11-05T02:17:05.545Z,85.12
2017-11-05T02:19:33.187Z,85.19
2017-11-05T02:22:00.773Z,85.19
2017-11-05T02:24:28.375Z,85.33
2017-11-05T02:26:56.066Z,85.51
2017-11-05T02:29:23.659Z,85.37
2017-11-05T02:31:51.290Z,85.35
2017-11-05T02:34:18.946Z,85.46
2017-11-05T02:36:46.611Z,85.53
2017-11-05T02:39:14.235Z,85.78
2017-11-05T02:41:41.835Z,85.70
2017-11-05T02:44:09.476Z,85.70
2017-11-05T02:46:37.076Z,85.85
2017-11-05T02:49:04.668Z,85.79
2017-11-05T02:51:32.323Z,85.84
2017-11-05T02:53:59.912Z,85.80
2017-11-05T02:56:27.594Z,85.57
2017-11-05T02:58:55.210Z,85.60
2017-11-05T03:01:22.800Z,85.50
2017-11-05T03:03:50.432Z,85.43
2017-11-05T03:06:18.111Z,85.37
2017-11-05T03:08:45.744Z,85.35
2017-11-05T03:11:13.349Z,85.23
2017-11-05T03:13:40.941Z,85.32
2017-11-05T03:16:08.585Z,85.45
2017-11-05T03:18:36.251Z,85.67
2017-11-05T03:21:03.905Z,85.40
2017-11-05T03:23:31.509Z,85.15
2017-11-05T03:25:59.116Z,85.20
2017-11-05T03:28:27.066Z,85.23
2017-11-05T03:30:54.712Z,85.05
2017-11-05T03:33:22.410Z,84.80
2017-11-05T03:35:50.379Z,84.79
2017-11-05T03:38:17.989Z,84.97
2017-11-05T03:40:45.629Z,85.08
2017-11-05T03:43:13.549Z,84.48
2017-11-05T03:45:41.200Z,84.56
2017-11-05T03:48:08.826Z,84.54
2017-11-05T03:50:36.754Z,84.72
2017-11-05T03:53:04.375Z,84.60
2017-11-05T03:55:32.025Z,84.76
2017-11-05T03:57:59.685Z,84.86
2017-11-05T04:00:27.606Z,84.95
2017-11-05T04:02:55.213Z,84.98
2017-11-05T04:05:22.850Z,84.92
2017-11-05T04:07:50.490Z,84.62
2017-11-05T04:10:18.125Z,84.56
2017-11-05T04:12:45.739Z,84.25
2017-11-05T04:15:13.353Z,84.02
2017-11-05T04:17:40.985Z,84.30
2017-11-05T04:20:08.602Z,84.42
2017-11-05T04:22:36.259Z,84.58
2017-11-05T04:25:03.857Z,84.64
2017-11-05T04:27:31.445Z,84.51
2017-11-05T04:29:59.088Z,84.33
2017-11-05T04:32:26.720Z,84.32
2017-11-05T04:34:54.368Z,84.17
2017-11-05T04:37:22.053Z,84.19
2017-11-05T04:39:49.948Z,84.26
2017-11-05T04:42:17.584Z,84.14
2017-11-05T04:44:45.173Z,83.88
2017-11-05T04:47:12.826Z,83.83
2017-11-05T04:49:40.424Z,84.13
2017-11-05T04:52:08.031Z,84.26
2017-11-05T04:54:35.706Z,84.38
2017-11-05T04:57:03.350Z,84.46
2017-11-05T04:59:31.006Z,84.61
2017-11-05T05:01:58.647Z,84.51
2017-11-05T05:04:26.284Z,84.49
2017-11-05T05:06:53.922Z,84.46
2017-11-05T05:09:21.560Z,84.60
2017-11-05T05:11:49.632Z,84.32
2017-11-05T05:14:17.237Z,84.47
2017-11-05T05:16:45.028Z,84.38
2017-11-05T05:19:12.650Z,84.68
2017-11-05T05:21:40.316Z,84.58
2017-11-05T05:24:07.987Z,84.56
2017-11-05T05:26:35.608Z,84.58
2017-11-05T05:29:03.236Z,84.78
2017-11-05T05:31:30.875Z,84.57
2017-11-05T05:33:58.490Z,84.42
2017-11-05T05:36:26.156Z,84.38
2017-11-05T05:38:53.751Z,84.55
2017-11-05T05:41:21.372Z,84.58
2017-11-05T05:43:49.028Z,84.87
2017-11-05T05:46:16.637Z,84.73
2017-11-05T05:48:44.300Z,84.89
2017-11-05T05:51:11.932Z,84.96
2017-11-05T05:53:39.539Z,84.70
2017-11-05T05:56:07.169Z,84.60
2017-11-05T05:58:34.820Z,84.59
2017-11-05T06:01:02.519Z,84.69
2017-11-05T06:03:30.460Z,84.65
2017-11-05T06:05:58.912Z,84.75
2017-11-05T06:08:26.528Z,84.86
2017-11-05T06:10:54.124Z,85.01
2017-11-05T06:13:21.768Z,84.98
2017-11-05T06:15:49.695Z,84.95
2017-11-05T06:18:17.348Z,85.10
2017-11-05T06:20:44.977Z,85.13
2017-11-05T06:23:12.607Z,84.99
2017-11-05T06:25:40.651Z,84.94
2017-11-05T06:28:08.249Z,85.00
2017-11-05T06:30:35.876Z,85.08
2017-11-05T06:33:03.498Z,85.07
2017-11-05T06:35:31.146Z,84.84
2017-11-05T06:37:58.798Z,85.04
2017-11-05T06:40:26.730Z,85.09
2017-11-05T06:42:54.363Z,85.10
2017-11-05T06:45:22.157Z,84.97
2017-11-05T06:47:49.756Z,84.93
2017-11-05T06:50:17.446Z,84.83
2017-11-05T06:52:45.089Z,84.35
2017-11-05T06:55:12.730Z,84.27
2017-11-05T06:57:40.388Z,84.17
2017-11-05T07:00:08.011Z,84.13
2017-11-05T07:02:35.652Z,84.12
2017-11-05T07:05:03.241Z,84.16
2017-11-05T07:07:30.849Z,83.96
2017-11-05T07:09:58.480Z,83.87
2017-11-05T07:12:26.069Z,83.91
2017-11-05T07:14:53.700Z,83.93
2017-11-05T07:17:21.299Z,83.81
2017-11-05T07:19:49.446Z,83.65
2017-11-05T07:22:17.516Z,83.13
2017-11-05T07:24:45.167Z,83.01
2017-11-05T07:27:12.817Z,83.16
2017-11-05T07:29:40.446Z,83.05
2017-11-05T07:32:08.041Z,83.20
2017-11-05T07:34:35.939Z,83.19
2017-11-05T07:37:03.617Z,83.04
2017-11-05T07:39:31.242Z,82.86
2017-11-05T07:41:58.937Z,82.52
2017-11-05T07:44:26.564Z,82.33
2017-11-05T07:46:55.121Z,82.35
2017-11-05T07:49:22.712Z,82.10
2017-11-05T07:51:50.704Z,82.00
2017-11-05T07:54:18.336Z,81.82
2017-11-05T07:56:45.933Z,81.31
2017-11-05T07:59:13.542Z,81.37
2017-11-05T08:01:41.260Z,81.34
2017-11-05T08:04:08.884Z,81.56
2017-11-05T08:06:36.517Z,81.50
2017-11-05T08:09:04.160Z,81.35
2017-11-05T08:11:31.764Z,81.14
2017-11-05T08:13:59.896Z,80.85
2017-11-05T08:16:27.514Z,81.07
2017-11-05T08:18:55.124Z,81.06
2017-11-05T08:21:22.783Z,81.30
2017-11-05T08:23:50.379Z,81.67
2017-11-05T08:26:18.021Z,81.26
2017-11-05T08:28:45.627Z,80.89
2017-11-05T08:31:13.658Z,80.71
2017-11-05T08:33:41.345Z,80.44
2017-11-05T08:36:09.009Z,79.96
2017-11-05T08:38:37.650Z,79.52
2017-11-05T08:41:05.718Z,79.82
2017-11-05T08:43:33.836Z,80.16
2017-11-05T08:46:01.591Z,80.25
2017-11-05T08:48:29.212Z,79.99
2017-11-05T08:50:56.862Z,79.38
2017-11-05T08:53:24.541Z,79.71
2017-11-05T08:55:52.311Z,79.75
2017-11-05T08:58:19.947Z,79.92
2017-11-05T09:00:47.612Z,79.89
2017-11-05T09:03:15.294Z,79.89
2017-11-05T09:05:42.924Z,79.86
2017-11-05T09:08:10.562Z,79.87
2017-11-05T09:10:38.224Z,79.88
2017-11-05T09:13:05.854Z,79.49
2017-11-05T09:15:33.617Z,79.29
2017-11-05T09:18:01.272Z,78.74
2017-11-05T09:20:29.607Z,78.36
2017-11-05T09:22:57.417Z,77.95
2017-11-05T09:25:25.023Z,77.84
2017-11-05T09:27:53.763Z,77.75
2017-11-05T09:30:25.433Z,77.26
2017-11-05T09:32:53.852Z,77.61
2017-11-05T09:35:24.490Z,77.91
2017-11-05T09:37:52.467Z,77.86
2017-11-05T09:40:23.735Z,77.37
2017-11-05T09:42:51.357Z,77.06
2017-11-05T09:45:22.580Z,77.01
2017-11-05T09:47:50.318Z,77.19
2017-11-05T09:50:17.991Z,77.20
2017-11-05T09:52:45.651Z,77.27
2017-11-05T09:55:13.253Z,76.94
2017-11-05T09:57:40.912Z,76.66
2017-11-05T10:00:08.577Z,76.67
2017-11-05T10:02:36.182Z,76.74
2017-11-05T10:05:04.291Z,76.00
2017-11-05T10:07:31.897Z,75.80
2017-11-05T10:09:59.557Z,75.19
2017-11-05T10:12:28.181Z,75.35
2017-11-05T10:14:56.154Z,75.06
2017-11-05T10:17:23.800Z,74.93
2017-11-05T10:19:51.476Z,75.13
2017-11-05T10:22:19.152Z,74.61
2017-11-05T10:24:46.832Z,74.05
2017-11-05T10:27:14.446Z,73.76
2017-11-05T10:29:42.102Z,73.96
2017-11-05T10:32:09.721Z,74.06
2017-11-05T10:34:37.379Z,74.54
2017-11-05T10:37:04.992Z,75.05
2017-11-05T10:39:32.633Z,75.36
2017-11-05T10:42:00.526Z,75.74
2017-11-05T10:44:28.185Z,75.91
2017-11-05T10:46:55.845Z,75.84
2017-11-05T10:49:23.526Z,75.75
2017-11-05T10:51:51.510Z,75.98
2017-11-05T10:54:19.141Z,76.03
2017-11-05T10:56:46.737Z,76.11
2017-11-05T10:59:14.407Z,76.07
2017-11-05T11:01:42.059Z,76.12
2017-11-05T11:04:09.684Z,76.19
2017-11-05T11:06:37.345Z,76.29
2017-11-05T11:09:05.039Z,76.29
2017-11-05T11:11:32.688Z,76.51
2017-11-05T11:14:00.330Z,76.57
2017-11-05T11:16:27.993Z,76.38
2017-11-05T11:18:55.650Z,76.65
2017-11-05T11:21:23.324Z,76.94
2017-11-05T11:23:51.317Z,76.84
2017-11-05T11:26:19.516Z,77.39
2017-11-05T11:28:47.376Z,76.73
2017-11-05T11:31:14.997Z,76.68
2017-11-05T11:33:42.646Z,76.86
2017-11-05T11:36:10.339Z,76.35
2017-11-05T11:38:37.945Z,76.78
2017-11-05T11:41:05.584Z,76.78
2017-11-05T11:43:33.230Z,76.25
2017-11-05T11:46:00.824Z,75.97
2017-11-05T11:48:28.695Z,75.85
2017-11-05T11:50:56.469Z,75.44
2017-11-05T11:53:24.101Z,75.41
2017-11-05T11:55:51.755Z,75.30
2017-11-05T11:58:19.424Z,75.26
2017-11-05T12:00:47.082Z,75.12
2017-11-05T12:03:14.782Z,75.21
2017-11-05T12:05:42.407Z,74.83
2017-11-05T12:08:10.066Z,74.43
2017-11-05T12:10:37.665Z,73.64
2017-11-05T12:13:05.325Z,73.19
2017-11-05T12:15:32.942Z,73.37
2017-11-05T12:18:01.083Z,72.49
2017-11-05T12:20:29.141Z,72.16
2017-11-05T12:22:56.950Z,71.72
2017-11-05T12:25:24.678Z,71.51
2017-11-05T12:27:52.279Z,71.43
2017-11-05T12:30:20.001Z,71.39
2017-11-05T12:32:47.644Z,70.83
2017-11-05T12:35:15.242Z,70.61
2017-11-05T12:37:42.885Z,70.97
2017-11-05T12:40:10.555Z,70.66
2017-11-05T12:42:38.210Z,70.49
2017-11-05T12:45:05.872Z,70.32
2017-11-05T12:47:33.733Z,70.25
2017-11-05T12:50:01.400Z,70.04
2017-11-05T12:52:29.008Z,70.10
2017-11-05T12:54:56.625Z,70.61
2017-11-05T12:57:24.264Z,71.15
2017-11-05T12:59:51.889Z,71.14
2017-11-05T13:02:19.545Z,71.70
2017-11-05T13:04:47.469Z,71.52
2017-11-05T13:07:15.061Z,71.83
2017-11-05T13:09:42.692Z,72.25
2017-11-05T13:12:10.319Z,72.68
2017-11-05T13:14:38.019Z,73.25
2017-11-05T13:17:05.649Z,73.49
2017-11-05T13:19:33.261Z,74.05
2017-11-05T13:22:00.883Z,74.11
2017-11-05T13:24:28.471Z,74.16
2017-11-05T13:26:56.127Z,74.16
2017-11-05T13:29:24.200Z,74.39
2017-11-05T13:31:51.801Z,74.61
2017-11-05T13:34:19.419Z,74.61
2017-11-05T13:36:47.029Z,74.70
2017-11-05T13:39:14.958Z,74.97
2017-11-05T13:41:42.615Z,74.81
2017-11-05T13:44:10.272Z,75.00
2017-11-05T13:46:37.919Z,74.90
2017-11-05T13:49:05.517Z,74.67
2017-11-05T13:51:33.471Z,74.72
2017-11-05T13:54:01.091Z,74.26
2017-11-05T13:56:29.001Z,74.02
2017-11-05T13:58:56.624Z,74.35
2017-11-05T14:01:24.224Z,74.35
2017-11-05T14:03:51.897Z,74.30
2017-11-05T14:06:19.500Z,74.36
2017-11-05T14:08:47.421Z,74.41
2017-11-05T14:11:15.082Z,74.08
2017-11-05T14:13:42.745Z,74.30
2017-11-05T14:16:10.396Z,74.55
2017-11-05T14:18:38.018Z,74.55
2017-11-05T14:21:05.674Z,74.74
2017-11-05T14:23:33.346Z,74.79
2017-11-05T14:26:02.862Z,74.93
2017-11-05T14:28:30.878Z,75.12
2017-11-05T14:30:58.678Z,75.23
2017-11-05T14:33:26.334Z,74.98
2017-11-05T14:35:54.039Z,75.20
2017-11-05T14:38:22.477Z,75.21
2017-11-05T14:40:51.804Z,75.37
2017-11-05T14:43:21.786Z,75.43
2017-11-05T14:45:49.749Z,75.53
2017-11-05T14:48:18.040Z,75.77
2017-11-05T14:50:45.680Z,76.17
2017-11-05T14:53:13.360Z,76.36
2017-11-05T14:55:41.022Z,76.61
2017-11-05T14:58:08.672Z,76.81
2017-11-05T15:00:36.339Z,76.94
2017-11-05T15:03:03.957Z,76.95
2017-11-05T15:05:31.753Z,77.29
2017-11-05T15:07:59.392Z,77.48
2017-11-05T15:10:27.000Z,77.89
2017-11-05T15:12:54.658Z,78.06
2017-11-05T15:15:22.630Z,78.70
2017-11-05T15:17:50.349Z,79.40
2017-11-05T15:20:17.980Z,79.35
2017-11-05T15:22:45.613Z,79.85
2017-11-05T15:25:13.272Z,80.32
2017-11-05T15:27:40.924Z,80.75
2017-11-05T15:30:08.594Z,81.11
2017-11-05T15:32:36.238Z,81.79
2017-11-05T15:35:03.888Z,82.60
2017-11-05T15:37:31.542Z,82.51
2017-11-05T15:39:59.513Z,83.12
2017-11-05T15:42:27.168Z,83.51
2017-11-05T15:44:55.009Z,83.75
2017-11-05T15:47:22.674Z,84.13
2017-11-05T15:49:50.382Z,84.51
2017-11-05T15:52:17.982Z,85.10
2017-11-05T15:54:45.617Z,85.28
2017-11-05T15:57:13.241Z,85.85
2017-11-05T15:59:41.166Z,86.06
2017-11-05T16:02:08.804Z,86.41
2017-11-05T16:04:36.499Z,86.53
2017-11-05T16:07:04.128Z,86.90
2017-11-05T16:09:31.766Z,87.25
2017-11-05T16:11:59.421Z,87.26
2017-11-05T16:14:27.015Z,87.38
2017-11-05T16:16:54.656Z,87.03
2017-11-05T16:19:22.281Z,87.21
2017-11-05T16:21:49.915Z,87.28
2017-11-05T16:24:17.626Z,87.30
2017-11-05T16:26:45.241Z,87.53
2017-11-05T16:29:12.879Z,87.56
2017-11-05T16:31:40.541Z,87.68
2017-11-05T16:34:08.195Z,87.63
2017-11-05T16:36:35.862Z,88.16
2017-11-05T16:39:03.558Z,88.34
2017-11-05T16:41:31.271Z,86.30
2017-11-05T16:43:59.212Z,86.58
2017-11-05T16:46:26.818Z,86.46
2017-11-05T16:48:54.529Z,85.77
2017-11-05T16:51:22.501Z,85.72
2017-11-05T16:53:50.090Z,86.33
2017-11-05T16:56:17.768Z,86.68
2017-11-05T16:58:45.371Z,86.34
2017-11-05T17:01:13.035Z,87.00
2017-11-05T17:03:40.654Z,87.35
2017-11-05T17:06:08.581Z,87.72
2017-11-05T17:08:36.549Z,86.78
2017-11-05T17:11:04.150Z,86.66
2017-11-05T17:13:31.854Z,86.27
2017-11-05T17:15:59.741Z,86.21
2017-11-05T17:18:27.727Z,86.60
2017-11-05T17:20:55.417Z,86.84
2017-11-05T17:23:23.051Z,86.48
2017-11-05T17:25:51.560Z,86.66
2017-11-05T17:28:19.195Z,86.92
2017-11-05T17:30:46.809Z,87.63
2017-11-05T17:33:14.444Z,87.25
2017-11-05T17:35:42.126Z,87.70
2017-11-05T17:38:09.837Z,87.76
2017-11-05T17:40:37.715Z,87.20
2017-11-05T17:43:05.397Z,86.63
2017-11-05T17:45:33.077Z,86.68
2017-11-05T17:48:00.757Z,87.14
2017-11-05T17:50:28.385Z,87.73
2017-11-05T17:52:56.022Z,87.59
2017-11-05T17:55:23.649Z,86.97
2017-11-05T17:57:51.312Z,87.49
2017-11-05T18:00:19.435Z,87.34
2017-11-05T18:02:47.097Z,87.37
2017-11-05T18:05:14.762Z,87.29
2017-11-05T18:07:42.369Z,86.87
2017-11-05T18:10:10.070Z,87.76
2017-11-05T18:12:37.688Z,87.58
2017-11-05T18:15:05.400Z,87.27
2017-11-05T18:17:33.294Z,87.19
2017-11-05T18:20:00.921Z,87.20
2017-11-05T18:22:29.233Z,86.54
2017-11-05T18:24:56.866Z,87.00
2017-11-05T18:27:24.643Z,86.75
2017-11-05T18:29:52.288Z,87.09
2017-11-05T18:32:19.952Z,87.17
2017-11-05T18:34:47.592Z,86.25
2017-11-05T18:37:15.188Z,86.37
2017-11-05T18:39:45.313Z,86.13
2017-11-05T18:42:12.995Z,86.19
2017-11-05T18:44:40.638Z,86.88
2017-11-05T18:47:08.284Z,86.48
2017-11-05T18:49:36.599Z,86.27
2017-11-05T18:52:04.224Z,86.64
2017-11-05T18:54:31.824Z,86.64
2017-11-05T18:56:59.465Z,87.01
2017-11-05T18:59:27.164Z,86.93
2017-11-05T19:01:54.801Z,86.73
2017-11-05T19:04:22.437Z,87.34
2017-11-05T19:06:50.029Z,87.27
2017-11-05T19:09:17.628Z,87.52
2017-11-05T19:11:45.317Z,87.55
2017-11-05T19:14:12.931Z,87.27
2017-11-05T19:16:41.267Z,87.17
2017-11-05T19:19:08.882Z,87.10
2017-11-05T19:21:36.479Z,87.22
2017-11-05T19:24:04.101Z,86.79
2017-11-05T19:26:31.736Z,87.22
2017-11-05T19:28:59.694Z,87.04
2017-11-05T19:31:27.279Z,87.10
2017-11-05T19:33:54.864Z,87.05
2017-11-05T19:36:22.506Z,87.43
2017-11-05T19:38:50.145Z,87.67
2017-11-05T19:41:17.772Z,87.38
2017-11-05T19:43:45.373Z,87.63
2017-11-05T19:46:12.973Z,87.11
2017-11-05T19:48:40.597Z,87.37
2017-11-05T19:51:08.458Z,87.89
2017-11-05T19:53:36.084Z,87.67
2017-11-05T19:56:03.671Z,87.79
2017-11-05T19:58:31.268Z,87.52
2017-11-05T20:03:32.673Z,88.03
2017-11-05T20:06:00.592Z,87.41
2017-11-05T20:08:28.188Z,87.25
2017-11-05T20:10:55.809Z,87.39
2017-11-05T20:13:23.679Z,87.55
2017-11-05T20:15:51.280Z,87.58
2017-11-05T20:18:18.932Z,87.76
2017-11-05T20:20:46.524Z,87.79
2017-11-05T20:23:14.433Z,87.97
2017-11-05T20:25:42.074Z,87.98
2017-11-05T20:28:09.672Z,87.93
2017-11-05T20:30:37.300Z,87.61
2017-11-05T20:33:04.934Z,87.91
2017-11-05T20:35:32.658Z,87.73
2017-11-05T20:38:00.306Z,87.74
2017-11-05T20:40:27.975Z,87.79
2017-11-05T20:42:55.944Z,87.78
2017-11-05T20:45:23.568Z,88.09
2017-11-05T20:47:51.196Z,88.18
2017-11-05T20:50:18.830Z,87.98
2017-11-05T20:52:46.475Z,88.23
2017-11-05T20:55:14.139Z,87.98
2017-11-05T20:57:41.729Z,87.93
2017-11-05T21:00:10.196Z,87.72
2017-11-05T21:02:38.062Z,87.52
2017-11-05T21:05:05.643Z,87.08
2017-11-05T21:07:33.277Z,87.33
2017-11-05T21:10:00.872Z,87.18
2017-11-05T21:12:28.815Z,87.54
2017-11-05T21:14:56.447Z,87.62
2017-11-05T21:17:24.046Z,87.08
2017-11-05T21:19:51.682Z,87.37
2017-11-05T21:22:19.577Z,87.46
2017-11-05T21:24:47.188Z,87.55
2017-11-05T21:27:14.817Z,87.34
2017-11-05T21:29:42.444Z,87.31
2017-11-05T21:32:10.103Z,87.40
2017-11-05T21:34:37.770Z,87.52
2017-11-05T21:37:05.370Z,87.56
2017-11-05T21:39:33.092Z,87.52
2017-11-05T21:42:00.854Z,88.08
2017-11-05T21:44:28.507Z,87.89
2017-11-05T21:46:56.099Z,87.86
2017-11-05T21:49:23.728Z,87.92
2017-11-05T21:51:51.343Z,87.85
2017-11-05T21:54:18.937Z,87.73
2017-11-05T21:56:46.568Z,87.37
2017-11-05T21:59:14.155Z,87.48
2017-11-05T22:01:41.794Z,87.30
2017-11-05T22:04:09.419Z,87.31
2017-11-05T22:06:37.036Z,87.25
2017-11-05T22:09:04.673Z,87.30
2017-11-05T22:11:32.274Z,87.30
2017-11-05T22:13:59.894Z,87.19
2017-11-05T22:16:27.506Z,86.74
2017-11-05T22:18:55.095Z,87.04
2017-11-05T22:21:22.732Z,87.14
2017-11-05T22:23:50.338Z,87.24
2017-11-05T22:26:18.302Z,87.57
2017-11-05T22:28:45.944Z,87.20
2017-11-05T22:31:13.572Z,86.89
2017-11-05T22:33:41.205Z,87.36
2017-11-05T22:36:08.800Z,87.18
2017-11-05T22:38:36.388Z,87.39
2017-11-05T22:41:04.008Z,87.68
2017-11-05T22:43:31.944Z,87.29
2017-11-05T22:45:59.569Z,87.05
2017-11-05T22:48:27.176Z,86.65
2017-11-05T22:50:54.772Z,86.61
2017-11-05T22:53:22.423Z,86.58
2017-11-05T22:55:50.007Z,86.23
2017-11-05T22:58:18.027Z,86.59
2017-11-05T23:00:45.616Z,86.79
2017-11-05T23:03:13.252Z,85.39
2017-11-05T23:05:40.884Z,85.81
2017-11-05T23:08:08.511Z,86.13
2017-11-05T23:10:36.102Z,85.72
2017-11-05T23:13:03.753Z,85.59
2017-11-05T23:15:31.672Z,85.47
2017-11-05T23:17:59.268Z,85.98
2017-11-05T23:20:26.906Z,85.35
2017-11-05T23:22:54.507Z,85.87
2017-11-05T23:25:22.127Z,86.05
2017-11-05T23:27:49.756Z,85.86
2017-11-05T23:30:17.337Z,85.52
2017-11-05T23:32:44.969Z,85.89
2017-11-05T23:35:12.558Z,85.40
2017-11-05T23:37:40.162Z,85.60
2017-11-05T23:40:07.792Z,85.63
2017-11-05T23:42:35.377Z,84.84
2017-11-05T23:45:03.021Z,85.35
2017-11-05T23:47:30.874Z,85.05
2017-11-05T23:49:58.519Z,84.72
2017-11-05T23:52:26.163Z,84.97
2017-11-05T23:54:53.755Z,84.97
2017-11-05T23:57:21.393Z,84.92
2017-11-05T23:59:48.988Z,85.32
